Date,TemperatureHighF,TemperatureAvgF,TemperatureLowF,DewpointHighF,DewpointAvgF,DewpointLowF,HumidityHigh,HumidityAvg,HumidityLow,PressureMaxIn,PressureMinIn,WindSpeedMaxMPH,WindSpeedAvgMPH,GustSpeedMaxMPH,PrecipitationSumIn
2013-1-1,39.0,35.7,25.6,30.8,24.0,12.5,74,62,51,30.03,29.83,22,3,22,0.02
2013-1-2,32.2,27.0,20.0,18.7,14.3,10.7,74,59,48,30.18,30.01,21,3,21,0.00
2013-1-3,32.4,27.6,17.5,20.3,16.1,10.6,74,62,50,30.21,30.06,16,2,16,0.00
2013-1-4,38.4,33.9,29.0,25.0,22.4,19.8,74,63,52,30.08,29.94,21,3,21,0.00
2013-1-5,42.3,35.3,27.3,25.5,22.6,19.2,84,60,48,30.28,30.00,25,3,25,0.00
2013-1-6,47.3,39.7,30.5,32.7,29.0,25.8,90,66,49,30.11,29.96,12,2,12,0.00
2013-1-7,43.7,34.3,25.6,30.8,24.8,21.5,91,70,43,30.40,30.04,19,2,19,0.00
2013-1-8,48.5,34.0,21.8,32.6,26.3,19.1,96,75,53,30.43,30.33,12,1,12,0.00
2013-1-9,44.7,35.3,25.3,37.1,30.0,22.8,92,81,65,30.39,30.13,11,1,11,0.00
2013-1-10,47.4,41.3,31.3,33.2,26.7,23.9,82,57,40,30.55,30.22,20,5,20,0.00
2013-1-11,42.2,36.4,28.9,39.3,31.9,25.2,93,84,67,30.55,30.10,8,1,8,0.50
2013-1-12,46.9,44.6,41.2,44.4,42.6,39.3,94,93,90,30.17,30.07,6,0,6,0.04
2013-1-13,48.1,45.9,44.1,46.4,44.3,42.5,95,94,92,30.16,30.00,6,0,6,0.01
2013-1-14,55.9,48.8,38.1,52.7,42.2,31.1,96,80,50,30.30,29.90,21,3,21,0.08
2013-1-15,39.2,37.0,34.9,34.3,28.7,25.9,89,72,60,30.36,30.23,11,1,11,0.11
2013-1-16,35.4,33.1,31.7,32.6,30.9,28.6,93,91,76,30.24,29.82,7,1,10,0.12
2013-1-17,42.6,37.7,33.7,32.8,29.3,23.5,93,73,56,30.10,29.89,14,2,14,0.33
2013-1-18,33.7,27.5,24.3,23.4,12.3,5.5,66,53,38,30.48,30.02,21,3,21,0.00
2013-1-19,49.2,39.8,27.1,30.5,24.5,12.6,69,54,44,30.39,29.92,19,3,19,0.10
2013-1-20,52.4,41.9,29.7,32.5,24.1,9.8,75,51,23,30.04,29.68,29,6,29,0.00
2013-1-21,31.2,28.0,21.6,19.3,14.3,9.2,74,57,43,30.10,29.83,16,2,16,0.00
2013-1-22,26.7,19.9,13.4,18.2,2.7,-7.1,70,47,31,30.21,29.83,29,8,29,0.00
2013-1-23,19.4,14.3,9.9,4.6,-1.6,-5.2,76,49,35,30.26,30.16,22,4,22,0.00
2013-1-24,23.3,15.6,8.5,5.4,1.9,-1.9,84,57,33,30.41,30.14,28,5,28,0.00
2013-1-25,24.4,17.9,12.8,17.7,6.4,0.1,90,61,42,30.42,30.07,21,1,21,0.00
2013-1-26,27.9,18.6,9.3,11.3,8.0,5.6,89,65,41,30.38,30.05,21,3,21,0.02
2013-1-27,33.9,24.7,13.1,14.6,10.9,7.6,82,57,38,30.53,30.37,15,3,15,0.00
2013-1-28,34.0,29.5,22.0,31.9,25.0,14.2,92,83,67,30.50,30.00,14,1,14,0.24
2013-1-29,52.3,39.5,34.0,44.2,36.1,31.8,94,88,70,30.17,29.99,12,1,12,0.24
2013-1-30,57.5,46.4,37.7,56.1,44.6,35.9,95,93,87,30.10,29.35,16,1,16,0.17
2013-1-31,60.8,45.3,29.9,58.5,31.4,10.6,95,60,36,29.78,29.03,32,10,37,0.79
2013-2-1,30.7,27.8,23.6,15.8,12.4,7.8,68,52,39,30.23,29.77,29,5,29,0.00
2013-2-2,31.1,24.4,18.8,20.7,11.8,5.7,87,60,36,30.30,30.06,18,2,18,0.00
2013-2-3,31.0,25.1,18.5,21.1,18.7,15.7,91,77,60,30.07,29.79,10,1,10,0.03
2013-2-4,30.1,26.7,22.2,21.0,12.2,8.9,82,55,41,29.97,29.81,23,4,23,0.00
2013-2-5,31.1,28.6,25.8,26.2,22.4,14.0,90,78,57,29.99,29.90,7,1,7,0.01
2013-2-6,38.4,31.9,24.0,27.5,20.3,3.5,93,65,34,30.36,29.92,20,4,20,0.01
2013-2-7,32.4,26.6,20.0,21.7,12.1,4.3,74,55,39,30.53,30.35,9,1,9,0.00
2013-2-8,33.7,31.8,27.0,31.1,27.9,21.7,92,86,71,30.35,29.65,23,3,23,0.03
2013-2-9,32.6,27.6,20.4,26.3,16.0,5.2,93,64,35,30.35,29.76,28,6,28,0.05
2013-2-10,36.8,24.1,10.6,21.5,12.8,5.5,90,63,38,30.49,30.33,11,1,11,0.28
2013-2-11,40.5,33.9,26.0,38.6,31.2,20.4,94,90,79,30.34,29.67,4,0,4,0.30
2013-2-12,43.7,39.2,29.2,34.5,28.1,24.6,94,66,50,29.97,29.71,23,4,23,0.10
2013-2-13,45.8,34.3,22.2,31.6,25.6,19.2,92,72,46,29.96,29.69,8,1,8,0.02
2013-2-14,46.1,36.4,29.0,31.7,28.8,25.7,93,76,48,30.00,29.71,9,1,9,0.05
2013-2-15,54.6,40.2,27.3,36.7,31.0,24.9,93,73,42,30.01,29.90,15,1,15,0.00
2013-2-16,39.4,34.9,30.8,33.8,26.2,15.3,91,71,52,29.98,29.74,14,2,14,0.07
2013-2-17,30.9,26.0,17.5,15.3,6.8,1.0,53,44,33,30.01,29.66,36,9,36,0.00
2013-2-18,34.8,25.3,17.3,16.2,7.6,2.3,62,47,32,30.24,30.00,23,5,23,0.00
2013-2-19,47.1,35.9,22.9,40.8,28.2,13.7,94,75,48,30.20,29.67,31,1,31,0.29
2013-2-20,38.2,30.7,25.5,24.3,15.5,10.5,61,53,44,29.98,29.71,27,8,31,0.00
2013-2-21,32.9,27.6,24.3,15.9,13.5,11.0,65,55,47,30.30,29.97,28,8,28,0.00
2013-2-22,39.8,32.2,23.4,29.3,21.9,14.3,78,66,51,30.41,30.27,12,1,12,0.00
2013-2-23,41.2,36.8,33.4,39.2,34.4,28.9,93,91,76,30.28,29.82,14,1,14,0.16
2013-2-24,45.5,38.5,33.6,38.0,31.7,22.9,98,77,57,29.97,29.74,21,4,21,0.01
2013-2-25,44.2,37.3,27.1,30.5,26.9,22.4,87,67,51,30.24,29.97,14,1,14,0.00
2013-2-26,44.2,37.1,27.8,34.1,30.5,25.0,91,78,65,30.30,29.92,23,4,23,0.17
2013-2-27,46.1,42.2,36.5,43.9,39.3,33.6,98,90,78,29.92,29.50,40,5,40,0.83
2013-2-28,49.0,42.0,37.1,40.1,34.5,31.1,94,76,54,29.62,29.54,11,3,13,0.00
2013-3-1,45.4,39.0,32.5,32.3,29.5,24.8,87,69,53,29.78,29.60,15,4,15,0.00
2013-3-2,39.2,35.7,31.4,27.6,25.5,23.8,81,66,58,29.78,29.69,16,5,16,0.00
2013-3-3,39.5,32.4,28.7,24.0,20.1,17.0,74,60,47,29.77,29.66,20,7,20,0.00
2013-3-4,40.2,33.2,27.5,23.4,20.2,15.8,68,59,48,29.91,29.76,29,10,29,0.00
2013-3-5,49.2,38.7,31.4,29.6,25.0,20.9,69,58,43,30.02,29.90,16,3,18,0.00
2013-3-6,41.3,38.6,36.4,32.3,29.3,27.5,76,69,63,29.99,29.92,26,4,26,0.04
2013-3-7,39.2,36.3,33.0,32.9,29.9,26.6,91,78,63,30.09,29.93,26,2,26,0.11
2013-3-8,42.1,35.7,31.5,33.6,30.9,27.7,93,83,62,30.20,30.01,19,1,19,0.37
2013-3-9,55.8,42.5,31.3,27.7,24.0,15.2,78,51,22,30.32,30.19,15,2,15,0.12
2013-3-10,53.4,38.9,26.7,37.7,31.1,23.9,92,75,51,30.40,30.29,13,2,13,0.00
2013-3-11,55.4,46.6,37.5,47.5,40.8,33.0,90,81,64,30.32,30.08,18,3,18,0.00
2013-3-12,54.8,51.4,43.2,53.1,47.6,36.8,94,87,73,30.09,29.66,24,5,24,0.97
2013-3-13,50.2,41.9,32.4,36.8,30.6,23.0,92,66,35,29.89,29.78,22,4,22,0.00
2013-3-14,40.9,34.3,28.7,28.4,14.2,5.8,68,44,25,29.96,29.83,32,9,32,0.00
2013-3-15,45.6,37.4,29.3,31.0,20.3,8.7,62,50,38,29.97,29.70,28,5,28,0.00
2013-3-16,40.9,34.9,32.0,32.3,25.9,20.5,94,71,51,29.92,29.78,13,1,13,0.06
2013-3-17,38.0,32.8,28.3,29.8,19.9,14.2,88,60,40,30.31,29.91,18,4,18,0.01
2013-3-18,36.7,30.5,24.5,31.0,18.2,9.1,92,62,44,30.42,30.03,17,3,17,0.00
2013-3-19,42.7,36.7,33.2,35.1,32.8,27.1,92,86,68,30.04,29.70,19,3,19,0.80
2013-3-20,43.9,36.7,29.4,26.3,21.5,17.3,71,55,35,29.88,29.78,24,4,24,0.07
2013-3-21,39.5,34.7,31.1,27.4,18.1,12.0,80,51,36,29.85,29.63,18,4,18,0.00
2013-3-22,40.9,34.3,28.0,23.2,19.2,14.7,66,54,44,29.88,29.73,21,4,21,0.00
2013-3-23,45.1,38.4,30.4,24.8,21.4,18.3,68,51,37,29.93,29.82,28,8,28,0.00
2013-3-24,47.7,38.7,26.7,26.9,22.9,20.0,78,54,38,29.95,29.71,17,2,17,0.00
2013-3-25,43.8,39.7,37.1,35.4,29.0,24.4,87,66,47,29.71,29.47,22,3,22,0.03
2013-3-26,50.6,42.0,33.2,31.8,28.8,25.2,85,61,38,29.86,29.58,20,3,20,0.00
2013-3-27,52.3,43.0,34.2,32.5,26.8,22.0,75,54,31,29.97,29.86,24,6,24,0.00
2013-3-28,49.4,43.7,36.5,35.2,30.7,28.3,73,60,49,30.11,29.95,15,5,15,0.00
2013-3-29,53.9,46.3,37.7,31.5,29.5,26.6,72,53,37,30.14,30.05,21,4,21,0.00
2013-3-30,57.7,44.7,30.6,32.9,26.7,20.1,90,54,24,30.16,30.05,19,2,19,0.00
2013-3-31,56.1,43.5,29.5,43.2,33.5,25.5,92,70,36,30.12,29.68,21,3,22,0.25
2013-4-1,62.4,46.9,37.3,47.5,36.3,14.0,95,70,34,29.91,29.60,32,4,32,0.04
2013-4-2,43.7,37.2,28.7,19.2,14.9,10.3,67,41,28,30.09,29.91,26,7,26,0.00
2013-4-3,45.9,38.1,32.2,17.6,14.1,10.5,51,38,27,30.30,30.08,28,9,28,0.00
2013-4-4,56.1,41.6,26.9,30.3,21.9,14.9,72,47,28,30.39,30.08,23,3,23,0.00
2013-4-5,61.7,48.9,39.7,31.2,24.7,17.0,66,41,20,30.08,29.71,26,5,26,0.00
2013-4-6,53.5,42.6,34.6,28.6,17.1,6.7,70,38,16,30.31,30.00,23,4,23,0.00
2013-4-7,58.2,48.0,37.0,44.2,35.4,27.4,77,63,39,30.30,29.98,25,4,25,0.00
2013-4-8,76.3,57.7,41.2,45.9,42.4,38.2,92,61,28,30.08,29.97,15,2,17,0.00
2013-4-9,80.5,65.8,49.9,53.9,44.8,36.1,87,52,21,30.00,29.89,26,4,26,0.00
2013-4-10,75.3,62.4,52.3,56.9,51.0,43.8,92,68,50,29.98,29.80,25,2,25,0.53
2013-4-11,62.3,55.7,47.4,57.0,47.9,39.9,94,76,52,30.05,29.77,20,3,20,0.00
2013-4-12,47.6,43.5,40.7,40.9,38.3,34.3,93,82,66,30.04,29.72,30,7,31,0.60
2013-4-13,58.7,48.6,39.3,41.7,37.4,32.8,93,68,42,29.96,29.75,16,1,16,0.04
2013-4-14,55.5,50.7,45.8,39.9,33.0,27.5,74,52,35,30.22,29.96,21,4,21,0.00
2013-4-15,61.2,49.8,39.2,37.2,32.4,27.5,78,53,37,30.38,30.22,17,2,17,0.00
2013-4-16,65.3,56.4,46.0,54.5,47.5,36.2,79,72,62,30.37,30.10,22,3,22,0.00
2013-4-17,69.5,61.8,51.1,56.4,45.3,35.6,87,58,32,30.29,30.10,18,2,18,0.00
2013-4-18,61.6,53.3,44.4,53.4,43.8,36.3,89,72,40,30.35,30.10,22,3,22,0.00
2013-4-19,75.5,65.2,56.4,64.1,59.2,53.3,92,81,65,30.10,29.62,21,4,21,0.22
2013-4-20,63.2,53.2,45.3,60.8,36.4,23.7,92,56,30,30.30,29.64,23,6,23,0.14
2013-4-21,54.0,45.0,35.6,30.9,23.4,18.8,65,44,26,30.62,30.30,18,3,21,0.00
2013-4-22,56.2,46.5,35.2,37.4,32.4,23.3,87,60,30,30.67,30.50,28,5,28,0.00
2013-4-23,52.5,45.3,39.8,41.6,37.0,31.2,85,72,65,30.50,30.11,19,2,19,0.00
2013-4-24,72.0,53.5,35.7,53.2,44.6,33.3,94,74,47,30.12,29.82,19,2,19,0.00
2013-4-25,64.8,55.6,45.9,52.3,32.9,21.3,81,46,19,30.26,29.84,21,4,21,0.00
2013-4-26,65.5,53.3,37.4,39.8,33.0,22.2,92,52,20,30.41,30.25,14,2,14,0.00
2013-4-27,70.3,56.4,37.7,36.6,32.1,25.4,83,43,23,30.43,30.26,12,1,12,0.00
2013-4-28,73.1,56.7,40.6,44.9,37.2,29.6,90,52,27,30.31,30.19,19,2,19,0.00
2013-4-29,56.6,55.3,53.3,49.4,46.9,38.8,85,74,56,30.24,30.18,11,1,11,0.04
2013-4-30,69.0,58.4,46.0,47.1,39.6,26.5,79,54,24,30.33,30.20,20,2,20,0.00
2013-5-1,69.8,55.0,37.3,45.7,39.0,30.5,92,59,27,30.48,30.33,17,2,17,0.01
2013-5-2,75.5,58.4,40.4,49.0,42.1,36.5,94,60,25,30.48,30.31,13,1,13,0.00
2013-5-3,67.0,57.4,47.2,44.1,40.1,35.2,84,54,33,30.46,30.34,17,2,17,0.00
2013-5-4,72.0,55.2,41.2,48.2,43.2,38.8,94,67,37,30.38,30.22,17,1,17,0.00
2013-5-5,64.1,51.9,39.2,46.2,40.8,36.5,93,69,39,30.30,30.20,14,2,14,0.00
2013-5-6,71.0,56.0,41.1,55.2,47.6,38.4,93,75,51,30.27,30.14,13,1,13,0.00
2013-5-7,75.5,61.7,46.3,59.5,53.0,44.1,94,75,55,30.17,30.07,15,2,15,0.00
2013-5-8,63.9,60.5,53.4,61.2,57.5,50.9,94,90,81,30.10,29.97,19,1,19,1.25
2013-5-9,67.3,58.8,51.0,59.5,55.3,49.0,95,89,71,30.01,29.88,10,0,10,0.66
2013-5-10,80.8,65.3,49.7,61.9,55.2,48.0,95,73,42,30.00,29.88,12,1,12,0.29
2013-5-11,71.4,64.5,60.7,64.9,61.3,56.8,94,90,79,29.90,29.69,16,1,16,0.64
2013-5-12,67.8,60.3,51.0,59.8,43.7,27.4,95,59,28,29.92,29.65,18,3,18,0.07
2013-5-13,56.0,48.8,40.1,35.2,31.3,25.6,79,52,34,30.11,29.92,17,2,17,0.00
2013-5-14,60.7,49.2,35.7,37.0,31.8,23.1,90,56,24,30.13,30.01,10,1,10,0.00
2013-5-15,68.7,56.4,39.5,57.8,47.4,36.2,90,73,47,30.07,29.66,16,1,16,0.00
2013-5-16,81.5,67.0,51.5,58.8,54.0,46.0,95,67,35,29.82,29.69,13,0,13,0.00
2013-5-17,72.0,63.5,53.9,48.0,43.5,38.3,77,49,33,30.20,29.82,11,1,11,0.00
2013-5-18,68.0,58.0,47.5,56.3,50.4,44.8,93,77,48,30.30,30.19,11,0,11,0.03
2013-5-19,59.1,57.6,56.0,57.1,55.3,52.4,94,92,85,30.32,30.17,9,0,9,0.36
2013-5-20,80.1,67.7,57.7,68.2,62.1,56.0,95,83,63,30.18,29.94,11,0,11,0.00
2013-5-21,89.3,75.4,60.6,72.3,66.5,58.7,95,76,52,29.97,29.81,13,1,13,0.00
2013-5-22,81.0,71.1,60.4,70.9,65.0,57.2,90,82,68,29.93,29.81,15,1,15,0.00
2013-5-23,79.2,70.6,65.8,72.4,67.2,64.0,95,89,71,29.88,29.74,17,1,17,1.68
2013-5-24,66.0,55.5,45.1,64.4,52.7,41.9,95,90,81,29.95,29.66,12,2,12,0.47
2013-5-25,53.1,48.9,44.4,46.2,42.8,39.4,93,80,63,30.00,29.89,20,4,20,0.40
2013-5-26,65.8,55.6,46.9,42.5,39.5,35.7,80,57,35,30.19,29.93,23,5,23,0.00
2013-5-27,75.0,59.6,40.3,47.4,41.2,36.4,93,56,25,30.24,30.09,10,0,10,0.00
2013-5-28,58.2,57.8,57.3,56.5,55.9,45.1,94,94,93,30.16,30.13,1,0,1,0.52
2013-5-29,84.7,69.6,58.3,70.6,63.1,56.5,95,81,57,30.14,29.98,12,0,12,0.00
2013-5-30,91.5,79.4,66.3,70.9,66.2,61.8,92,67,40,30.11,30.03,9,0,9,0.00
2013-5-31,93.5,79.9,65.3,74.7,66.1,61.1,94,66,40,30.11,29.97,11,1,12,0.00
2013-6-1,91.3,79.2,64.3,72.3,66.9,61.6,94,68,47,30.01,29.88,14,1,14,0.00
2013-6-2,88.8,80.2,73.5,71.6,69.0,66.1,87,69,52,29.90,29.75,13,1,13,0.01
2013-6-3,79.5,72.4,66.7,68.9,64.9,49.5,93,79,50,29.89,29.79,13,0,13,0.22
2013-6-4,74.4,65.1,56.0,50.0,45.2,42.4,64,50,32,30.11,29.88,13,1,13,0.00
2013-6-5,76.3,63.4,48.2,55.2,47.5,43.0,89,59,37,30.21,30.10,16,1,16,0.00
2013-6-6,72.1,62.5,52.6,59.2,54.2,47.5,94,76,44,30.14,30.01,15,1,15,0.20
2013-6-7,61.9,60.7,59.1,59.9,58.7,57.1,94,93,91,30.02,29.64,14,1,14,2.67
2013-6-8,75.7,66.7,57.1,65.0,60.2,54.8,94,81,64,30.04,29.59,12,0,12,0.13
2013-6-9,80.4,69.7,57.5,62.1,59.5,55.5,95,72,46,30.16,30.04,7,0,7,0.00
2013-6-10,71.2,65.1,62.1,66.2,62.1,60.1,94,90,82,30.16,29.82,13,1,13,0.95
2013-6-11,79.5,70.3,62.5,68.9,64.3,57.8,96,82,61,29.83,29.60,17,1,17,0.19
2013-6-12,75.0,68.8,60.0,59.6,55.7,52.5,86,64,49,29.84,29.70,15,2,15,0.00
2013-6-13,63.2,60.4,56.6,60.8,57.5,53.4,93,90,84,29.84,29.48,18,2,18,0.57
2013-6-14,75.0,61.8,53.1,59.7,54.1,50.7,93,77,54,29.88,29.53,13,0,13,0.50
2013-6-15,79.2,69.0,57.8,58.7,54.6,48.4,91,63,37,30.00,29.88,8,0,8,0.00
2013-6-16,81.5,69.5,55.3,64.9,58.7,52.7,92,71,45,29.99,29.74,19,0,19,0.00
2013-6-17,85.3,74.8,62.8,68.7,64.1,60.5,95,71,48,29.90,29.81,13,0,13,0.00
2013-6-18,83.4,69.4,62.2,69.2,63.5,57.1,93,83,54,29.90,29.81,17,0,17,0.40
2013-6-19,76.8,66.4,57.1,60.8,53.8,46.5,93,68,36,30.16,29.89,13,0,13,0.07
2013-6-20,81.2,68.4,53.8,61.9,56.2,51.5,94,68,40,30.25,30.16,15,0,15,0.00
2013-6-21,84.8,72.1,56.6,64.5,57.4,51.9,87,61,42,30.29,30.21,11,1,14,0.00
2013-6-22,85.7,72.4,57.9,65.3,59.1,53.8,89,64,44,30.25,30.12,13,0,13,0.00
2013-6-23,90.1,76.4,62.0,71.7,66.3,58.8,93,73,51,30.18,30.04,17,1,17,0.00
2013-6-24,92.5,81.0,71.6,74.2,69.3,63.4,92,70,41,30.07,29.92,9,0,10,0.00
2013-6-25,90.8,79.6,67.7,75.0,68.6,64.8,92,71,47,29.99,29.78,11,0,11,0.00
2013-6-26,84.0,78.9,74.1,71.4,68.9,66.6,85,72,61,29.84,29.76,8,0,8,0.00
2013-6-27,86.8,77.8,70.9,73.7,70.4,68.0,93,79,58,29.82,29.53,18,1,18,0.65
2013-6-28,86.2,78.7,73.3,72.9,69.4,64.8,92,74,55,29.55,29.45,18,1,18,0.00
2013-6-29,86.0,76.7,67.8,70.0,67.4,64.6,91,74,55,29.69,29.47,12,1,12,0.00
2013-6-30,86.3,75.9,67.9,75.8,70.7,65.8,95,84,67,29.90,29.68,8,0,14,0.00
2013-7-1,77.2,74.8,72.0,73.8,71.7,69.5,94,90,85,30.04,29.89,7,0,10,1.73
2013-7-2,85.0,78.3,73.6,75.5,72.5,70.3,93,83,69,30.17,30.03,13,1,13,0.05
2013-7-3,84.5,78.0,73.2,75.6,72.2,69.1,91,82,70,30.23,30.15,9,0,10,0.04
2013-7-4,89.3,79.6,74.4,76.4,73.6,72.1,94,83,61,30.24,30.17,10,0,10,0.00
2013-7-5,89.3,85.0,81.2,72.2,71.3,70.3,73,64,54,30.12,30.07,7,0,9,0.00
2013-7-6,91.5,83.9,75.7,76.7,73.2,71.2,88,71,54,30.13,30.01,11,0,11,0.00
2013-7-7,95.5,84.0,73.0,77.7,73.5,70.5,92,73,46,30.05,29.89,12,0,12,0.20
2013-7-8,88.0,79.0,69.5,72.0,69.2,67.0,94,74,53,30.03,29.94,8,0,8,0.01
2013-7-9,88.1,79.9,69.8,73.6,69.8,66.7,91,72,56,30.06,29.97,8,0,8,0.00
2013-7-10,86.0,80.9,75.3,77.7,72.4,69.1,90,76,64,30.01,29.78,15,0,15,0.22
2013-7-11,83.7,78.9,71.6,74.7,70.3,65.4,88,75,58,29.92,29.79,6,0,6,0.01
2013-7-27,85.0,78.4,67.2,67.0,63.7,60.6,87,62,50,30.04,29.94,14,2,14,0.00
2013-7-28,79.4,71.8,64.6,70.0,66.0,62.1,94,83,64,29.98,29.92,14,0,14,0.20
2013-7-29,83.0,74.8,68.0,70.0,64.5,54.2,95,73,41,30.09,29.95,9,0,9,0.01
2013-7-30,79.3,69.9,58.3,61.6,58.2,55.1,92,68,48,30.16,30.09,7,0,7,0.00
2013-7-31,81.6,71.4,58.5,65.0,61.0,56.2,96,72,53,30.16,30.02,7,0,7,0.00
2013-8-1,75.5,68.7,65.9,67.4,64.9,61.9,94,88,67,30.04,29.83,8,0,8,0.52
2013-8-2,83.3,73.5,63.7,68.1,63.9,59.9,95,74,47,29.90,29.78,10,0,10,0.01
2013-8-3,78.7,69.9,65.6,68.4,64.2,60.0,91,83,65,29.91,29.82,12,0,12,0.08
2013-8-4,78.1,69.4,58.7,63.8,57.8,52.5,94,69,44,29.97,29.84,13,1,13,0.01
2013-8-5,76.8,67.0,56.0,57.0,51.9,45.3,86,61,39,30.05,29.96,8,0,8,0.00
2013-8-6,83.7,69.5,54.8,62.4,56.7,52.5,94,67,37,30.11,30.03,16,1,16,0.00
2013-8-7,79.2,71.7,63.8,67.8,63.9,59.4,90,77,61,30.14,30.05,12,1,14,0.00
2013-8-8,82.9,74.3,69.6,74.2,70.3,66.6,94,88,72,30.06,30.00,11,0,11,0.42
2013-8-9,86.0,76.7,71.8,76.9,73.1,69.8,95,89,69,30.01,29.78,13,1,13,0.48
2013-8-10,81.9,73.3,64.9,71.4,64.2,58.0,95,75,47,30.05,29.85,10,0,10,0.01
2013-8-11,78.4,69.5,57.1,64.8,59.1,54.5,94,71,46,30.12,30.02,7,0,7,0.00
2013-8-12,82.0,73.3,67.4,67.9,64.5,57.1,94,76,44,30.03,29.92,7,0,7,0.06
2013-8-13,78.2,70.8,66.7,69.6,66.6,64.2,95,87,69,29.93,29.68,13,0,13,0.70
2013-8-14,72.6,65.3,55.1,65.1,54.0,48.2,94,68,53,30.05,29.75,14,2,14,0.00
2013-8-15,75.6,64.2,51.9,57.6,52.6,48.6,94,69,42,30.14,30.04,8,0,8,0.00
2013-8-16,81.0,67.1,54.4,61.3,55.4,52.0,94,69,38,30.20,30.12,7,0,7,0.00
2013-8-17,83.8,68.9,55.3,63.8,57.2,53.0,94,69,40,30.27,30.20,8,0,8,0.00
2013-8-18,76.1,68.3,61.6,66.5,61.0,56.4,91,78,61,30.26,30.12,6,0,6,0.00
2013-8-19,79.2,69.7,60.2,66.2,62.2,58.1,95,78,57,30.12,30.02,5,0,5,0.00
2013-8-20,85.2,73.4,60.3,68.2,64.0,58.3,95,75,46,30.12,30.04,8,0,8,0.00
2013-8-21,88.3,75.3,62.7,68.9,64.1,60.5,94,71,41,30.18,30.04,6,0,6,0.00
2013-8-22,75.7,71.4,66.7,71.6,68.3,63.6,94,90,85,30.06,29.87,6,0,6,0.20
2013-8-23,79.3,72.2,63.9,68.5,61.6,54.8,94,72,45,30.10,29.87,12,0,12,0.01
2013-8-24,80.0,68.4,55.7,58.5,54.7,52.0,89,64,41,30.34,30.10,11,0,11,0.00
2013-8-25,83.0,68.5,54.2,61.7,55.9,50.9,95,68,37,30.39,30.22,9,0,9,0.00
2013-8-26,78.8,72.4,65.2,69.6,62.8,56.3,92,72,64,30.23,29.89,8,0,8,0.07
2013-8-27,84.8,76.1,70.5,70.7,68.8,67.4,93,79,60,29.90,29.81,11,0,11,0.00
2013-8-28,87.3,73.2,66.5,72.3,68.7,64.3,95,87,58,29.90,29.84,23,0,23,0.07
2013-8-29,81.0,72.8,68.1,69.8,67.5,64.2,95,84,65,30.02,29.88,11,0,11,0.02
2013-8-30,84.0,75.4,68.6,70.8,67.9,65.2,92,78,56,30.03,29.84,7,0,7,0.01
2013-8-31,86.4,79.0,73.2,74.9,71.4,68.8,87,78,64,29.86,29.77,11,0,11,0.00
2013-9-1,84.4,77.5,70.3,76.4,72.3,67.1,95,84,71,29.87,29.78,17,0,17,0.89
2013-9-2,80.2,75.5,70.9,75.1,72.4,68.9,95,90,76,29.80,29.70,6,0,6,0.12
2013-9-3,79.3,72.2,63.4,70.6,63.5,57.0,95,76,51,29.89,29.70,8,1,8,0.07
2013-9-4,80.3,69.3,59.3,61.1,58.4,53.5,92,70,46,29.99,29.88,8,0,8,0.00
2013-9-5,74.8,66.9,55.1,62.1,54.0,42.6,92,66,34,30.16,29.91,11,1,11,0.00
2013-9-6,70.6,59.1,49.0,49.1,46.4,42.4,89,66,40,30.26,30.13,12,0,12,0.00
2013-9-7,78.0,63.3,46.6,57.2,50.3,44.4,94,67,35,30.13,29.89,8,0,8,0.00
2013-9-8,79.3,69.7,58.5,65.6,55.7,44.1,83,63,34,30.08,29.81,10,1,10,0.00
2013-9-9,73.3,62.4,48.6,59.1,50.4,44.9,91,66,43,30.25,30.08,11,0,11,0.00
2013-9-10,85.9,75.5,66.6,74.3,68.2,59.0,91,79,67,30.16,30.03,14,0,14,0.05
2013-9-11,96.5,83.4,71.3,78.3,73.5,68.6,94,74,53,30.11,29.95,13,0,13,0.00
2013-9-12,89.3,76.1,68.2,75.4,70.2,66.3,94,83,56,29.98,29.67,21,1,21,1.79
2013-9-13,74.2,67.2,57.8,66.8,60.0,48.9,95,79,56,29.85,29.62,12,1,12,0.07
2013-9-14,64.7,57.5,49.0,50.3,47.8,45.1,89,71,55,30.14,29.85,7,0,7,0.00
2013-9-15,70.5,57.0,43.9,51.9,47.3,41.9,94,73,41,30.22,30.08,7,0,7,0.00
2013-9-16,70.3,61.2,54.1,57.7,53.5,45.8,93,77,53,30.25,30.02,9,0,9,0.01
2013-9-17,64.3,54.9,47.2,47.0,42.0,37.9,90,63,42,30.44,30.25,15,1,15,0.00
2013-9-18,71.0,56.2,41.5,51.8,45.7,39.5,94,72,37,30.36,30.18,8,0,8,0.00
2013-9-19,77.0,59.8,43.9,55.2,49.9,42.0,95,74,39,30.20,30.05,11,0,11,0.00
2013-9-20,80.7,62.8,47.4,62.6,54.1,45.5,95,76,42,30.10,29.98,11,0,11,0.00
2013-9-21,78.5,65.3,50.8,67.1,59.9,48.8,95,84,60,30.02,29.65,21,2,21,0.38
2013-9-22,68.8,61.6,53.5,66.4,52.3,42.2,94,73,53,29.92,29.64,13,2,13,0.40
2013-9-23,64.5,54.7,44.7,48.1,43.6,41.0,90,67,47,30.05,29.91,11,1,11,0.00
2013-9-24,71.3,55.0,41.2,50.1,44.8,39.1,93,72,41,30.06,29.87,11,0,11,0.00
2013-9-25,71.3,56.8,42.7,55.0,47.9,40.5,94,75,44,29.97,29.88,6,0,6,0.00
2013-9-26,70.4,58.7,47.9,58.5,52.7,46.0,98,81,59,30.11,29.94,8,0,8,0.00
2013-9-27,70.5,58.7,48.4,55.7,51.8,46.1,94,79,58,30.27,30.10,11,0,11,0.00
2013-9-28,74.5,61.1,49.8,56.1,52.7,47.4,94,76,47,30.33,30.24,10,0,10,0.00
2013-9-29,73.5,59.1,47.8,60.1,52.4,45.8,97,80,54,30.24,30.08,12,0,12,0.00
2013-9-30,75.6,59.0,46.2,56.9,51.3,44.3,95,78,46,30.09,29.96,6,0,7,0.00
2013-10-1,78.8,62.6,47.1,62.2,54.6,45.2,98,78,46,30.01,29.89,6,0,6,0.00
2013-10-2,82.5,66.7,52.7,63.8,58.6,51.0,95,78,49,30.01,29.90,11,0,11,0.00
2013-10-3,77.3,64.8,52.5,60.6,57.0,50.5,95,78,49,30.13,30.01,6,0,6,0.00
2013-10-4,84.4,69.7,58.7,69.0,62.9,56.4,95,81,53,30.06,29.95,7,0,7,0.00
2013-10-5,74.4,68.2,64.4,65.9,63.1,60.9,90,84,72,30.10,30.01,7,0,7,0.00
2013-10-6,67.3,66.2,65.3,65.2,63.7,62.6,94,92,87,30.10,30.03,11,1,11,0.01
2013-10-7,76.2,66.4,56.0,71.0,63.7,53.1,95,91,80,30.03,29.73,19,1,19,0.44
2013-10-8,66.3,55.8,47.0,53.0,47.7,44.2,95,77,46,30.34,29.98,14,0,14,0.00
2013-10-9,63.2,54.5,47.3,49.7,46.2,42.3,90,74,53,30.42,30.30,14,1,14,0.00
2013-10-10,61.2,56.7,52.2,53.8,50.1,45.9,83,78,75,30.31,30.09,11,1,11,0.00
2013-10-11,67.8,63.2,58.6,60.6,56.4,51.9,82,78,74,30.10,30.02,13,1,13,0.00
2013-10-12,74.3,64.6,57.8,58.0,50.0,34.8,81,61,24,30.30,30.08,27,2,27,0.00
2013-10-13,65.2,57.7,51.8,52.7,50.1,48.2,91,76,61,30.41,30.29,18,2,18,0.00
2013-10-14,67.0,56.1,48.5,51.8,49.2,46.0,94,79,51,30.37,30.24,7,0,7,0.00
2013-10-15,73.8,57.2,45.6,56.9,50.1,43.7,95,79,49,30.27,30.12,12,0,12,0.00
2013-10-16,66.4,57.9,49.4,58.5,53.4,47.2,95,85,72,30.12,29.91,8,0,8,0.00
2013-10-17,74.8,66.1,61.3,62.6,60.2,58.1,93,82,59,29.91,29.67,10,0,10,0.02
2013-10-18,67.0,60.5,47.9,62.2,48.7,43.2,89,67,43,29.98,29.66,14,1,14,0.00
2013-10-19,64.1,53.3,40.4,53.3,45.6,38.3,94,76,48,29.99,29.75,11,0,11,0.01
2013-10-20,62.0,53.0,42.1,53.0,41.8,35.4,90,69,38,30.07,29.75,13,1,13,0.00
2013-10-21,68.4,51.6,36.0,45.4,39.9,33.9,94,69,32,30.16,29.98,14,1,14,0.00
2013-10-22,64.1,51.7,41.0,51.6,45.2,38.9,95,80,61,29.98,29.75,9,0,9,0.00
2013-10-23,54.7,45.5,37.2,43.3,38.1,35.1,95,77,49,29.82,29.61,8,0,9,0.00
2013-10-24,52.8,44.3,36.2,35.9,31.9,27.3,87,64,40,30.01,29.75,13,1,13,0.00
2013-10-25,52.4,41.2,31.2,35.0,31.3,28.1,91,70,43,30.23,30.00,14,1,14,0.00
2013-10-26,55.2,43.3,28.6,36.4,30.7,26.2,94,65,39,30.23,29.90,19,1,19,0.00
2013-10-27,57.2,48.5,37.3,35.9,33.3,30.2,84,57,38,30.13,29.85,11,2,11,0.00
2013-10-28,61.3,45.4,30.3,37.4,33.7,27.9,94,68,37,30.33,30.12,12,0,12,0.00
2013-10-29,55.4,45.3,36.9,36.1,33.0,29.4,86,63,43,30.43,30.33,11,0,11,0.00
2013-10-30,57.6,46.4,36.7,49.2,41.0,33.1,91,82,68,30.36,30.18,4,0,4,0.00
2013-10-31,65.2,53.7,39.2,59.3,50.3,37.1,94,89,76,30.24,29.79,11,1,13,0.01
2013-11-1,69.7,64.1,51.6,63.5,57.3,48.8,91,79,53,29.80,29.54,17,2,27,0.14
2013-11-2,67.8,54.4,46.1,52.2,45.9,40.3,95,75,48,29.79,29.61,12,0,12,0.00
2013-11-3,49.4,43.5,35.5,42.4,33.1,19.2,90,67,50,30.46,29.78,15,2,15,0.00
2013-11-4,46.0,37.0,28.9,28.1,21.0,16.4,82,54,32,30.67,30.46,17,1,17,0.00
2013-11-5,56.1,43.7,31.8,40.5,35.6,27.4,90,74,54,30.67,30.48,9,0,9,0.00
2013-11-6,60.7,50.6,38.3,49.7,43.8,36.1,94,79,57,30.50,30.07,14,1,14,0.00
2013-11-7,62.5,52.7,36.0,57.6,47.4,31.9,92,83,60,30.07,29.74,15,2,15,0.09
2013-11-8,48.2,40.8,32.5,32.8,29.0,25.2,92,65,43,30.22,29.93,23,4,23,0.00
2013-11-9,49.6,42.1,31.8,33.7,28.6,26.4,82,60,41,30.29,30.00,13,1,13,0.00
2013-11-10,60.1,47.9,37.1,40.2,34.3,29.9,86,61,38,30.05,29.80,26,4,26,0.00
2013-11-11,52.5,47.9,39.4,33.6,29.6,25.8,59,49,42,30.20,29.96,19,3,19,0.00
2013-11-12,50.9,38.2,30.1,35.7,23.9,16.0,81,57,45,30.29,29.93,21,4,21,0.01
2013-11-13,38.4,31.3,26.3,19.8,16.1,10.9,75,54,32,30.38,30.27,23,2,23,0.00
2013-11-14,52.1,37.8,25.8,22.1,19.6,15.9,80,52,25,30.27,30.15,14,1,14,0.00
2013-11-15,58.6,39.2,26.1,30.0,25.1,21.0,86,61,26,30.26,30.15,8,0,8,0.00
2013-11-16,62.8,46.7,32.0,45.7,39.0,26.7,91,76,48,30.33,30.22,10,1,10,0.01
2013-11-17,59.5,53.1,41.3,57.6,50.7,38.9,94,91,87,30.28,29.78,7,0,7,0.00
2013-11-18,64.2,58.8,49.9,59.5,42.3,27.6,93,59,31,29.78,29.58,23,5,23,0.21
2013-11-19,49.9,42.9,34.6,30.8,25.7,21.4,58,50,41,30.35,29.77,31,7,31,0.00
2013-11-20,44.1,34.5,27.9,21.5,17.8,11.9,72,53,28,30.61,30.35,13,0,13,0.00
2013-11-21,51.4,39.2,22.8,38.7,29.8,19.0,89,70,49,30.63,30.39,10,0,10,0.00
2013-11-22,57.5,50.7,45.4,50.4,45.5,38.9,93,83,73,30.39,29.90,8,0,8,0.06
2013-11-23,54.1,41.2,29.3,48.0,24.8,5.9,85,53,34,30.05,29.89,30,6,30,0.00
2013-11-24,29.3,25.5,22.5,9.5,5.4,-1.7,51,42,26,30.37,30.01,31,8,31,0.00
2013-11-25,36.4,28.2,17.9,15.2,12.3,7.7,73,52,38,30.49,30.33,12,1,12,0.00
2013-11-26,44.6,36.0,32.6,43.0,24.9,14.6,94,66,43,30.34,29.79,8,0,8,0.53
2013-11-27,60.7,46.3,33.9,58.9,42.1,19.8,98,85,57,29.80,29.34,33,5,33,2.06
2013-11-28,33.9,30.4,25.2,21.2,15.5,9.9,75,54,38,30.48,29.73,30,5,30,0.00
2013-11-29,37.7,31.2,26.3,23.2,19.7,13.1,83,63,49,30.75,30.47,13,2,13,0.00
2013-11-30,37.4,29.8,21.3,26.7,18.3,12.8,74,62,45,30.77,30.39,8,1,9,0.00
2013-12-1,48.7,39.5,30.8,35.1,30.8,26.1,87,72,53,30.38,30.01,5,0,7,0.00
2013-12-2,46.4,38.4,30.9,38.6,33.8,28.6,91,84,70,30.02,29.89,4,0,4,0.00
2013-12-3,54.1,38.1,28.4,39.7,32.5,26.4,94,82,54,30.01,29.86,7,0,7,0.00
2013-12-4,51.9,41.3,30.0,40.5,35.1,27.7,94,80,60,30.15,30.01,7,0,7,0.00
2013-12-5,53.2,49.6,45.7,51.8,47.4,40.2,95,92,79,30.13,29.92,5,0,5,0.05
2013-12-6,55.7,46.7,35.6,54.2,44.4,32.8,95,92,87,30.17,29.86,13,1,13,0.78
2013-12-7,39.8,35.8,30.6,33.6,27.1,16.9,92,72,53,30.52,30.09,18,3,18,0.06
2013-12-8,32.5,29.7,26.7,27.0,20.0,15.5,89,67,56,30.60,30.39,9,1,9,0.00
2013-12-9,37.7,33.5,29.5,35.8,31.4,26.8,93,92,89,30.40,29.97,16,1,16,0.18
2013-12-10,33.6,31.2,25.4,31.8,28.7,20.4,94,90,80,30.12,29.87,11,0,11,0.03
2013-12-11,33.3,27.5,22.5,20.1,17.9,15.9,81,67,52,30.32,30.12,15,2,15,0.05
2013-12-12,27.6,23.8,21.2,16.7,9.5,6.1,70,54,44,30.36,30.16,18,3,18,0.00
2013-12-13,34.3,26.6,17.7,20.9,13.8,6.8,79,59,48,30.34,30.12,20,2,20,0.00
2013-12-14,27.9,23.2,19.3,24.9,18.5,15.8,92,82,68,30.51,29.84,16,2,16,0.00
2013-12-15,37.0,32.8,27.3,32.2,28.2,22.4,93,83,67,29.84,29.53,18,1,18,0.45
2013-12-16,31.7,25.9,15.8,23.1,13.2,8.7,85,59,43,30.25,29.83,15,4,22,0.00
2013-12-17,25.6,22.1,14.8,22.6,18.4,11.4,89,85,76,30.24,29.95,7,0,7,0.00
2013-12-18,36.3,27.2,17.4,24.4,19.6,14.2,90,74,53,30.17,29.93,20,2,20,0.11
2013-12-19,45.3,31.8,19.8,31.2,24.3,16.6,90,75,49,30.19,30.02,12,0,12,0.25
2013-12-20,50.2,38.9,30.3,34.7,31.6,27.4,91,76,53,30.11,29.97,8,0,8,0.11
2013-12-21,60.1,47.4,35.3,52.7,42.0,32.9,94,82,63,30.00,29.89,13,1,13,0.01
2013-12-22,69.2,62.9,50.2,62.8,57.3,47.0,94,82,71,29.96,29.79,18,3,18,0.01
2013-12-23,60.7,53.0,40.7,57.5,49.8,31.7,95,89,71,30.16,29.90,19,2,19,0.68
2013-12-24,40.7,34.5,24.9,31.3,22.9,10.0,89,63,49,30.35,30.09,28,5,28,0.00
2013-12-25,29.0,23.7,17.9,17.6,10.1,6.4,73,56,45,30.53,30.35,23,3,23,0.00
2013-12-26,35.4,29.3,25.0,27.2,22.7,16.9,87,76,67,30.44,30.16,9,1,9,0.00
2013-12-27,38.9,30.9,22.2,24.7,22.6,19.5,96,72,52,30.36,30.25,12,1,12,0.01
2013-12-28,52.4,35.6,23.0,29.3,25.5,20.5,93,70,38,30.29,30.06,13,1,13,0.00
2013-12-29,44.1,37.8,31.0,39.7,34.0,26.8,93,86,66,30.07,29.44,19,2,19,1.05
2013-12-30,42.2,33.6,21.6,36.9,25.0,10.0,93,71,51,30.21,29.68,24,4,24,0.00
2013-12-31,31.3,25.3,18.8,24.1,13.8,9.2,80,62,49,30.28,30.06,17,3,22,0.00
2014-1-1,32.4,26.6,18.0,20.5,15.5,8.5,79,63,51,30.42,30.26,11,1,11,0.00
2014-1-2,30.4,23.4,12.5,22.1,17.8,8.6,94,79,64,30.27,29.71,17,3,17,0.00